4AL5 weather

CLOSED Spinelli Field
Madison, Alabama, United States

Public forecast

Using degrees Fahrenheit for public forecast. Weather courtesy of forecast.io.

Closest aviation weather report (METAR) to Spinelli Field

Closest report is Redstone Army Air Field, 4.6 nm (8.5 km) SE. Retrieved 2019/10/22 07:38 UTC (3 minutes ago):

KHUA 220738Z AUTO 00000KT 10SM SCT012 BKN060 14/13 A2990 RMK AO2 SLP123

Closest aviation forecast (TAF) to Spinelli Field

Closest forecast is Huntsville International Carl T Jones Field, 5.6 nm (10.4 km) S. Retrieved 2019/10/22 06:34 UTC (1 hour ago):

TAF KHSV 220532Z 2206/2306 30006KT 6SM -RA BR SCT015 OVC035 TEMPO 2206/2208 5SM RA BR BKN010 OVC020 FM220800 31005KT P6SM SCT030 SCT150 FM221700 28010G17KT P6SM SKC FM230200 VRB03KT P6SM SKC